createdAt,value
2023-05-14T00:01:08.548Z,101148.41
2023-05-14T00:03:41.412Z,101153.41
2023-05-14T00:06:11.096Z,101150.59
2023-05-14T00:08:39.104Z,101158.66
2023-05-14T00:11:09.275Z,101154.13
2023-05-14T00:13:37.963Z,101153.28
2023-05-14T00:16:06.255Z,101148.00
2023-05-14T00:18:34.526Z,101151.34
2023-05-14T00:21:02.762Z,101145.75
2023-05-14T00:23:31.469Z,101142.72
2023-05-14T00:25:59.729Z,101144.88
2023-05-14T00:28:28.038Z,101146.41
2023-05-14T00:30:57.650Z,101153.50
2023-05-14T00:33:25.949Z,101149.56
2023-05-14T00:35:53.988Z,101151.06
2023-05-14T00:38:24.451Z,101147.41
2023-05-14T00:40:52.572Z,101142.88
2023-05-14T00:43:21.399Z,101138.78
2023-05-14T00:45:53.451Z,101143.63
2023-05-14T00:48:21.983Z,101147.25
2023-05-14T00:50:51.731Z,101139.41
2023-05-14T00:53:20.205Z,101145.88
2023-05-14T00:55:50.181Z,101140.47
2023-05-14T00:58:19.638Z,101145.88
2023-05-14T01:00:47.912Z,101145.13
2023-05-14T01:03:21.149Z,101142.63
2023-05-14T01:06:01.362Z,101149.09
2023-05-14T01:08:35.680Z,101155.00
2023-05-14T01:11:27.369Z,101147.34
2023-05-14T01:14:24.153Z,101151.88
2023-05-14T01:17:00.546Z,101150.03
2023-05-14T01:19:44.484Z,101150.16
2023-05-14T01:22:12.816Z,101146.91
2023-05-14T01:24:41.013Z,101157.59
2023-05-14T01:27:23.936Z,101159.50
2023-05-14T01:30:30.349Z,101158.66
2023-05-14T01:33:01.046Z,101162.13
2023-05-14T01:35:30.660Z,101155.63
2023-05-14T01:38:01.121Z,101158.31
2023-05-14T01:40:30.915Z,101156.06
2023-05-14T01:42:59.667Z,101163.16
2023-05-14T01:45:28.113Z,101157.53
2023-05-14T01:47:56.352Z,101163.97
2023-05-14T01:50:29.980Z,101153.09
2023-05-14T01:52:58.232Z,101159.44
2023-05-14T01:55:26.243Z,101160.78
2023-05-14T01:57:55.952Z,101159.91
2023-05-14T02:00:27.883Z,101159.13
2023-05-14T02:02:56.342Z,101165.31
2023-05-14T02:05:24.751Z,101163.69
2023-05-14T02:07:52.783Z,101158.25
2023-05-14T02:10:21.258Z,101168.59
2023-05-14T02:12:49.986Z,101165.16
2023-05-14T02:15:18.417Z,101160.50
2023-05-14T02:17:47.337Z,101160.06
2023-05-14T02:20:16.419Z,101151.03
2023-05-14T02:22:46.657Z,101164.75
2023-05-14T02:25:15.201Z,101156.97
2023-05-14T02:27:43.484Z,101155.34
2023-05-14T02:30:13.150Z,101143.66
2023-05-14T02:32:42.790Z,101150.53
2023-05-14T02:35:11.036Z,101159.03
2023-05-14T02:37:39.742Z,101152.31
2023-05-14T02:40:08.369Z,101147.94
2023-05-14T02:42:36.680Z,101147.97
2023-05-14T02:45:06.793Z,101143.00
2023-05-14T02:47:37.738Z,101145.56
2023-05-14T02:50:07.067Z,101142.13
2023-05-14T02:52:35.627Z,101139.88
2023-05-14T02:55:03.578Z,101141.06
2023-05-14T02:57:31.769Z,101140.94
2023-05-14T02:59:59.998Z,101145.50
2023-05-14T03:02:28.663Z,101146.41
2023-05-14T03:04:57.420Z,101149.97
2023-05-14T03:07:26.129Z,101157.91
2023-05-14T03:09:54.729Z,101154.31
2023-05-14T03:12:22.982Z,101152.25
2023-05-14T03:14:50.929Z,101152.34
2023-05-14T03:17:19.935Z,101161.38
2023-05-14T03:19:48.387Z,101154.47
2023-05-14T03:22:16.839Z,101157.56
2023-05-14T03:24:45.403Z,101170.44
2023-05-14T03:27:15.501Z,101160.16
2023-05-14T03:29:44.055Z,101164.34
2023-05-14T03:32:12.191Z,101168.69
2023-05-14T03:34:40.985Z,101165.94
2023-05-14T03:37:10.345Z,101172.66
2023-05-14T03:39:38.791Z,101173.00
2023-05-14T03:42:07.038Z,101180.22
2023-05-14T03:44:35.537Z,101184.53
2023-05-14T03:47:03.757Z,101184.22
2023-05-14T03:49:31.852Z,101184.31
2023-05-14T03:52:00.110Z,101184.09
2023-05-14T03:54:28.604Z,101186.34
2023-05-14T03:56:57.288Z,101185.78
2023-05-14T03:59:26.135Z,101184.56
2023-05-14T04:01:54.460Z,101178.34
2023-05-14T04:04:22.346Z,101186.88
2023-05-14T04:06:50.832Z,101185.56
2023-05-14T04:09:19.325Z,101181.72
2023-05-14T04:11:48.652Z,101183.56
2023-05-14T04:14:16.734Z,101176.56
2023-05-14T04:16:47.524Z,101179.06
2023-05-14T04:19:15.769Z,101177.03
2023-05-14T04:21:43.829Z,101182.78
2023-05-14T04:24:11.914Z,101181.28
2023-05-14T04:26:40.296Z,101172.31
2023-05-14T04:29:09.014Z,101173.72
2023-05-14T04:31:37.560Z,101175.59
2023-05-14T04:34:06.026Z,101175.03
2023-05-14T04:36:34.522Z,101183.06
2023-05-14T04:39:02.853Z,101181.47
2023-05-14T04:41:31.394Z,101179.34
2023-05-14T04:44:02.198Z,101179.56
2023-05-14T04:46:30.720Z,101182.91
2023-05-14T04:49:00.026Z,101183.78
2023-05-14T04:51:28.395Z,101179.22
2023-05-14T04:53:56.559Z,101183.31
2023-05-14T04:56:27.503Z,101174.03
2023-05-14T04:58:55.319Z,101182.47
2023-05-14T05:01:23.860Z,101174.13
2023-05-14T05:03:53.055Z,101177.84
2023-05-14T05:06:21.846Z,101179.97
2023-05-14T05:08:49.997Z,101183.06
2023-05-14T05:11:19.769Z,101180.00
2023-05-14T05:13:48.115Z,101180.31
2023-05-14T05:16:16.297Z,101184.09
2023-05-14T05:18:45.924Z,101184.34
2023-05-14T05:21:13.977Z,101179.19
2023-05-14T05:23:41.989Z,101187.19
2023-05-14T05:26:10.368Z,101191.19
2023-05-14T05:28:39.458Z,101190.09
2023-05-14T05:31:08.436Z,101191.88
2023-05-14T05:33:39.649Z,101195.22
2023-05-14T05:36:10.456Z,101193.53
2023-05-14T05:38:38.476Z,101186.19
2023-05-14T05:41:07.197Z,101192.97
2023-05-14T05:43:35.933Z,101185.03
2023-05-14T05:46:04.019Z,101188.34
2023-05-14T05:48:34.543Z,101196.03
2023-05-14T05:51:02.752Z,101190.34
2023-05-14T05:53:31.812Z,101194.53
2023-05-14T05:55:59.758Z,101187.34
2023-05-14T05:58:27.758Z,101182.84
2023-05-14T06:00:57.981Z,101182.03
2023-05-14T06:03:26.245Z,101186.25
2023-05-14T06:05:54.392Z,101182.78
2023-05-14T06:08:22.678Z,101178.66
2023-05-14T06:10:51.003Z,101181.75
2023-05-14T06:13:19.195Z,101181.72
2023-05-14T06:15:47.406Z,101176.72
2023-05-14T06:18:16.010Z,101171.09
2023-05-14T06:20:45.802Z,101175.03
2023-05-14T06:23:16.785Z,101184.53
2023-05-14T06:25:44.842Z,101190.44
2023-05-14T06:28:13.050Z,101183.38
2023-05-14T06:30:41.438Z,101186.41
2023-05-14T06:33:10.553Z,101184.00
2023-05-14T06:35:39.240Z,101185.97
2023-05-14T06:38:08.395Z,101182.25
2023-05-14T06:40:36.919Z,101181.97
2023-05-14T06:43:07.019Z,101185.84
2023-05-14T06:45:37.792Z,101168.97
2023-05-14T06:48:05.858Z,101167.00
2023-05-14T06:50:34.152Z,101174.66
2023-05-14T06:53:02.683Z,101169.53
2023-05-14T06:55:30.786Z,101172.03
2023-05-14T06:58:00.010Z,101170.81
2023-05-14T07:00:29.160Z,101168.28
2023-05-14T07:02:57.473Z,101168.41
2023-05-14T07:05:25.942Z,101171.59
2023-05-14T07:07:54.122Z,101167.06
2023-05-14T07:10:23.007Z,101154.81
2023-05-14T07:12:51.798Z,101155.94
2023-05-14T07:15:20.120Z,101161.94
2023-05-14T07:17:49.388Z,101166.53
2023-05-14T07:20:17.958Z,101154.84
2023-05-14T07:22:46.505Z,101167.19
2023-05-14T07:25:14.671Z,101160.88
2023-05-14T07:27:43.094Z,101155.16
2023-05-14T07:30:11.515Z,101149.38
2023-05-14T07:32:40.074Z,101155.56
2023-05-14T07:35:08.435Z,101150.03
2023-05-14T07:37:37.204Z,101152.16
2023-05-14T07:40:05.638Z,101148.53
2023-05-14T07:42:36.955Z,101149.59
2023-05-14T07:45:06.178Z,101154.94
2023-05-14T07:47:34.705Z,101149.84
2023-05-14T07:50:03.041Z,101147.06
2023-05-14T07:52:31.636Z,101141.78
2023-05-14T07:55:00.342Z,101137.69
2023-05-14T07:57:28.401Z,101141.75
2023-05-14T07:59:57.509Z,101140.69
2023-05-14T08:02:25.802Z,101142.59
2023-05-14T08:04:54.302Z,101149.38
2023-05-14T08:07:22.377Z,101141.28
2023-05-14T08:09:51.084Z,101134.03
2023-05-14T08:12:19.111Z,101136.25
2023-05-14T08:14:47.296Z,101130.50
2023-05-14T08:17:15.528Z,101135.63
2023-05-14T08:19:43.857Z,101135.78
2023-05-14T08:22:11.931Z,101128.59
2023-05-14T08:24:40.796Z,101138.75
2023-05-14T08:27:09.136Z,101129.84
2023-05-14T08:29:37.511Z,101121.13
2023-05-14T08:32:19.286Z,101119.00
2023-05-14T08:34:52.087Z,101123.69
2023-05-14T08:37:20.222Z,101122.81
2023-05-14T08:39:48.505Z,101120.50
2023-05-14T08:42:20.618Z,101117.94
2023-05-14T08:44:52.744Z,101106.06
2023-05-14T08:47:22.880Z,101104.97
2023-05-14T08:50:08.859Z,101107.13
2023-05-14T08:52:37.915Z,101107.22
2023-05-14T08:55:07.403Z,101111.53
2023-05-14T08:57:36.228Z,101094.78
2023-05-14T09:00:14.615Z,101094.63
2023-05-14T09:02:43.853Z,101102.03
2023-05-14T09:05:12.856Z,101097.00
2023-05-14T09:07:41.922Z,101089.84
2023-05-14T09:10:12.573Z,101097.84
2023-05-14T09:12:40.502Z,101093.59
2023-05-14T09:15:09.061Z,101083.03
2023-05-14T09:17:40.492Z,101087.69
2023-05-14T09:20:10.189Z,101080.06
2023-05-14T09:22:39.627Z,101080.09
2023-05-14T09:25:10.155Z,101071.84
2023-05-14T09:27:39.360Z,101067.41
2023-05-14T09:30:13.966Z,101071.00
2023-05-14T09:32:46.330Z,101077.78
2023-05-14T09:35:18.052Z,101064.56
2023-05-14T09:37:50.854Z,101061.81
2023-05-14T09:40:24.583Z,101058.19
2023-05-14T09:42:53.297Z,101050.59
2023-05-14T09:45:21.470Z,101048.28
2023-05-14T09:47:49.669Z,101043.84
2023-05-14T09:50:17.933Z,101049.13
2023-05-14T09:52:46.142Z,101045.25
2023-05-14T09:55:14.365Z,101034.88
2023-05-14T09:57:42.709Z,101041.06
2023-05-14T10:00:13.066Z,101030.88
2023-05-14T10:02:43.641Z,101032.97
2023-05-14T10:05:13.636Z,101034.91
2023-05-14T10:07:46.162Z,101040.00
2023-05-14T10:10:17.427Z,101034.47
2023-05-14T10:13:13.175Z,101033.41
2023-05-14T10:15:44.553Z,101027.06
2023-05-14T10:18:14.401Z,101021.50
2023-05-14T10:20:42.830Z,101020.66
2023-05-14T10:23:10.825Z,101027.03
2023-05-14T10:25:39.158Z,101010.06
2023-05-14T10:28:07.531Z,101011.31
2023-05-14T10:30:36.046Z,101009.19
2023-05-14T10:33:13.878Z,101002.56
2023-05-14T10:35:59.176Z,100994.72
2023-05-14T10:38:29.432Z,100991.53
2023-05-14T10:41:01.115Z,100986.03
2023-05-14T10:43:37.509Z,100993.22
2023-05-14T10:46:07.200Z,100989.53
2023-05-14T10:48:37.636Z,100984.16
2023-05-14T10:51:08.699Z,100991.50
2023-05-14T10:53:38.542Z,100985.38
2023-05-14T10:56:08.558Z,100989.19
2023-05-14T10:58:42.523Z,100988.38
2023-05-14T11:01:14.038Z,100986.28
2023-05-14T11:03:46.824Z,100984.59
2023-05-14T11:06:16.411Z,100979.84
2023-05-14T11:08:47.911Z,100986.78
2023-05-14T11:11:16.327Z,100990.31
2023-05-14T11:13:45.939Z,100986.53
2023-05-14T11:16:23.550Z,100992.50
2023-05-14T11:19:11.737Z,100998.53
2023-05-14T11:21:40.279Z,101006.00
2023-05-14T11:24:08.664Z,101012.13
2023-05-14T11:26:37.170Z,101003.13
2023-05-14T11:29:05.795Z,101005.56
2023-05-14T11:31:34.352Z,101016.41
2023-05-14T11:34:04.289Z,101050.44
2023-05-14T11:36:33.187Z,101014.56
2023-05-14T11:39:01.566Z,101028.47
2023-05-14T11:41:31.781Z,101016.03
2023-05-14T11:44:00.100Z,101014.38
2023-05-14T11:46:30.362Z,101023.13
2023-05-14T11:49:00.710Z,101020.84
2023-05-14T11:51:29.646Z,101025.97
2023-05-14T11:53:59.640Z,101017.38
2023-05-14T11:56:28.693Z,101051.53
2023-05-14T11:58:58.670Z,101018.06
2023-05-14T12:01:27.832Z,101019.50
2023-05-14T12:03:56.773Z,101011.97
2023-05-14T12:06:31.739Z,101004.47
2023-05-14T12:09:02.421Z,101011.84
2023-05-14T12:11:37.798Z,101011.03
2023-05-14T12:14:15.932Z,101005.81
2023-05-14T12:16:44.952Z,101006.13
2023-05-14T12:19:18.459Z,100997.47
2023-05-14T12:21:48.387Z,100998.50
2023-05-14T12:24:18.643Z,100996.81
2023-05-14T12:26:47.914Z,100999.75
2023-05-14T12:29:16.707Z,100989.50
2023-05-14T12:31:49.433Z,100994.09
2023-05-14T12:34:17.860Z,100994.94
2023-05-14T12:36:46.111Z,100995.16
2023-05-14T12:39:14.658Z,100986.31
2023-05-14T12:41:43.411Z,100985.91
2023-05-14T12:44:11.852Z,100984.59
2023-05-14T12:46:40.552Z,100988.97
2023-05-14T12:49:08.751Z,100995.00
2023-05-14T12:51:37.033Z,100993.22
2023-05-14T12:54:06.979Z,100990.25
2023-05-14T12:56:38.204Z,100985.72
2023-05-14T12:59:06.368Z,100985.16
2023-05-14T13:01:34.718Z,100984.53
2023-05-14T13:04:02.845Z,100980.94
2023-05-14T13:06:32.172Z,100989.31
2023-05-14T13:09:02.725Z,100986.00
2023-05-14T13:11:32.704Z,100989.81
2023-05-14T13:14:02.383Z,100988.75
2023-05-14T13:16:31.028Z,100992.56
2023-05-14T13:19:02.562Z,100993.41
2023-05-14T13:21:31.707Z,100986.66
2023-05-14T13:24:00.161Z,100989.84
2023-05-14T13:26:28.727Z,100986.44
2023-05-14T13:28:57.149Z,100991.47
2023-05-14T13:31:25.416Z,100999.38
2023-05-14T13:33:53.601Z,100995.28
2023-05-14T13:36:21.686Z,100999.50
2023-05-14T13:38:49.765Z,100998.81
2023-05-14T13:41:18.010Z,100999.78
2023-05-14T13:43:46.225Z,101003.19
2023-05-14T13:46:14.705Z,101002.47
2023-05-14T13:48:42.991Z,100989.84
2023-05-14T13:51:14.052Z,100990.75
2023-05-14T13:53:42.233Z,100995.59
2023-05-14T13:56:10.875Z,100995.38
2023-05-14T13:58:39.780Z,100987.19
2023-05-14T14:01:08.079Z,100979.78
2023-05-14T14:03:36.504Z,100980.25
2023-05-14T14:06:05.057Z,100989.38
2023-05-14T14:08:38.028Z,100982.38
2023-05-14T14:11:06.216Z,100981.34
2023-05-14T14:13:34.716Z,100977.97
2023-05-14T14:16:04.081Z,100974.75
2023-05-14T14:18:32.802Z,100976.03
2023-05-14T14:21:01.135Z,100980.50
2023-05-14T14:23:29.453Z,100978.81
2023-05-14T14:25:58.442Z,100981.34
2023-05-14T14:28:27.119Z,100978.56
2023-05-14T14:30:55.324Z,100977.97
2023-05-14T14:33:23.774Z,100978.38
2023-05-14T14:35:52.202Z,100965.84
2023-05-14T14:38:20.615Z,100969.44
2023-05-14T14:40:49.003Z,100976.44
2023-05-14T14:43:17.714Z,100973.88
2023-05-14T14:45:48.281Z,100965.53
2023-05-14T14:48:26.821Z,100970.19
2023-05-14T14:50:56.447Z,100962.97
2023-05-14T14:53:25.923Z,100967.00
2023-05-14T14:55:54.817Z,100964.44
2023-05-14T14:58:23.854Z,100962.94
2023-05-14T15:00:54.278Z,100958.06
2023-05-14T15:03:23.449Z,100966.75
2023-05-14T15:05:53.875Z,100956.53
2023-05-14T15:08:27.288Z,100962.22
2023-05-14T15:10:56.714Z,100968.13
2023-05-14T15:13:25.521Z,100964.47
2023-05-14T15:15:53.594Z,100949.59
2023-05-14T15:18:21.611Z,100951.88
2023-05-14T15:20:50.055Z,100950.78
2023-05-14T15:23:18.460Z,100954.19
2023-05-14T15:25:50.513Z,100949.94
2023-05-14T15:28:20.527Z,100956.44
2023-05-14T15:30:48.733Z,100954.47
2023-05-14T15:33:19.655Z,100952.22
2023-05-14T15:35:47.858Z,100955.88
2023-05-14T15:38:16.184Z,100961.53
2023-05-14T15:40:44.604Z,100953.63
2023-05-14T15:43:12.907Z,100961.56
2023-05-14T15:45:41.143Z,100954.91
2023-05-14T15:48:09.374Z,100958.81
2023-05-14T15:50:38.222Z,100955.75
2023-05-14T15:53:06.319Z,100955.19
2023-05-14T15:55:34.290Z,100951.06
2023-05-14T15:58:02.853Z,100960.00
2023-05-14T16:00:31.110Z,100959.81
2023-05-14T16:02:59.891Z,100961.16
2023-05-14T16:05:28.905Z,100962.50
2023-05-14T16:07:57.207Z,100956.63
2023-05-14T16:10:25.597Z,100954.53
2023-05-14T16:12:55.286Z,100956.06
2023-05-14T16:15:23.444Z,100959.44
2023-05-14T16:17:52.151Z,100958.84
2023-05-14T16:20:20.365Z,100956.75
2023-05-14T16:22:49.057Z,100955.13
2023-05-14T16:25:18.983Z,100973.00
2023-05-14T16:27:47.000Z,100951.91
2023-05-14T16:30:15.173Z,100960.53
2023-05-14T16:32:46.131Z,100955.31
2023-05-14T16:35:14.634Z,100960.84
2023-05-14T16:37:43.219Z,100967.41
2023-05-14T16:40:12.571Z,100964.88
2023-05-14T16:42:47.086Z,100970.06
2023-05-14T16:45:16.739Z,100963.28
2023-05-14T16:47:45.408Z,100965.41
2023-05-14T16:50:14.169Z,100964.59
2023-05-14T16:52:42.579Z,100960.19
2023-05-14T16:55:11.282Z,100962.06
2023-05-14T16:57:44.155Z,100963.97
2023-05-14T17:00:12.910Z,100962.13
2023-05-14T17:02:41.614Z,100960.75
2023-05-14T17:05:10.168Z,100964.34
2023-05-14T17:07:39.972Z,100965.22
2023-05-14T17:10:09.185Z,100966.59
2023-05-14T17:12:37.879Z,100973.78
2023-05-14T17:15:07.744Z,100976.69
2023-05-14T17:17:35.931Z,100969.50
2023-05-14T17:20:06.160Z,100969.00
2023-05-14T17:22:34.719Z,100975.81
2023-05-14T17:25:03.395Z,100973.94
2023-05-14T17:27:33.772Z,100980.25
2023-05-14T17:30:03.774Z,100980.25
2023-05-14T17:32:36.169Z,100980.63
2023-05-14T17:35:06.458Z,100976.34
2023-05-14T17:37:36.771Z,100984.72
2023-05-14T17:40:05.185Z,100979.56
2023-05-14T17:42:33.826Z,100979.56
2023-05-14T17:45:02.093Z,100977.13
2023-05-14T17:47:30.695Z,100983.59
2023-05-14T17:49:59.190Z,100981.00
2023-05-14T17:52:28.051Z,100975.72
2023-05-14T17:54:58.209Z,100986.44
2023-05-14T17:57:26.884Z,100989.84
2023-05-14T17:59:55.122Z,100995.09
2023-05-14T18:02:23.590Z,100980.25
2023-05-14T18:04:51.907Z,100981.75
2023-05-14T18:07:22.172Z,100981.41
2023-05-14T18:09:50.277Z,100985.47
2023-05-14T18:12:18.566Z,100982.75
2023-05-14T18:14:47.607Z,100984.78
2023-05-14T18:17:41.105Z,100988.34
2023-05-14T18:20:10.048Z,100990.00
2023-05-14T18:22:38.626Z,100991.63
2023-05-14T18:25:07.541Z,100980.66
2023-05-14T18:27:37.826Z,100984.75
2023-05-14T18:30:07.053Z,100986.03
2023-05-14T18:32:37.084Z,100996.19
2023-05-14T18:35:08.053Z,100985.38
2023-05-14T18:37:36.898Z,100984.94
2023-05-14T18:40:05.720Z,100999.19
2023-05-14T18:42:35.234Z,101002.31
2023-05-14T18:45:04.507Z,100997.63
2023-05-14T18:47:36.397Z,100995.81
2023-05-14T18:50:05.388Z,100999.31
2023-05-14T18:52:34.805Z,100993.78
2023-05-14T18:55:03.565Z,100994.59
2023-05-14T18:57:35.047Z,100997.91
2023-05-14T19:00:06.674Z,101004.38
2023-05-14T19:02:36.953Z,101007.56
2023-05-14T19:05:05.796Z,101014.16
2023-05-14T19:07:34.439Z,101011.88
2023-05-14T19:10:04.043Z,101011.97
2023-05-14T19:12:32.923Z,101008.66
2023-05-14T19:15:01.584Z,101001.44
2023-05-14T19:17:33.014Z,101000.97
2023-05-14T19:20:01.339Z,101006.03
2023-05-14T19:22:43.914Z,101012.16
2023-05-14T19:25:12.119Z,101004.91
2023-05-14T19:27:42.915Z,101020.81
2023-05-14T19:30:11.710Z,101015.25
2023-05-14T19:32:48.279Z,101020.06
2023-05-14T19:35:16.973Z,101019.22
2023-05-14T19:37:50.775Z,101023.09
2023-05-14T19:40:19.203Z,101020.53
2023-05-14T19:42:49.075Z,101018.84
2023-05-14T19:45:17.554Z,101007.72
2023-05-14T19:47:48.568Z,101015.06
2023-05-14T19:50:17.561Z,101009.94
2023-05-14T19:52:48.839Z,101015.53
2023-05-14T19:55:16.983Z,101013.84
2023-05-14T19:57:45.191Z,101012.09
2023-05-14T20:00:14.239Z,101014.53
2023-05-14T20:02:43.600Z,101004.53
2023-05-14T20:05:12.131Z,101009.59
2023-05-14T20:07:40.577Z,101002.03
2023-05-14T20:10:10.187Z,100998.75
2023-05-14T20:12:39.533Z,100998.69
2023-05-14T20:15:08.189Z,101000.25
2023-05-14T20:17:38.544Z,100997.53
2023-05-14T20:20:07.439Z,100994.38
2023-05-14T20:22:36.550Z,100991.38
2023-05-14T20:25:05.237Z,100999.91
2023-05-14T20:27:34.324Z,100999.50
2023-05-14T20:30:02.507Z,101008.34
2023-05-14T20:32:31.327Z,101007.06
2023-05-14T20:35:02.436Z,100999.34
2023-05-14T20:37:36.228Z,101007.53
2023-05-14T20:40:07.422Z,101007.38
2023-05-14T20:42:36.817Z,101003.06
2023-05-14T20:45:07.365Z,100998.66
2023-05-14T20:47:38.080Z,100999.94
2023-05-14T20:50:10.365Z,100997.78
2023-05-14T20:52:39.129Z,100994.34
2023-05-14T20:55:10.249Z,100995.72
2023-05-14T20:57:40.219Z,100996.41
2023-05-14T21:00:11.400Z,100992.25
2023-05-14T21:02:39.835Z,100983.41
2023-05-14T21:05:08.154Z,100985.41
2023-05-14T21:07:37.680Z,100988.22
2023-05-14T21:10:08.386Z,100987.53
2023-05-14T21:12:40.626Z,100987.22
2023-05-14T21:15:18.597Z,100981.88
2023-05-14T21:17:49.955Z,100977.03
2023-05-14T21:20:18.477Z,100978.28
2023-05-14T21:22:47.012Z,100972.13
2023-05-14T21:25:32.737Z,100976.31
2023-05-14T21:28:04.153Z,100982.00
2023-05-14T21:30:32.360Z,100984.34
2023-05-14T21:33:00.567Z,100985.81
2023-05-14T21:35:32.947Z,100978.66
2023-05-14T21:38:01.452Z,100984.06
2023-05-14T21:40:32.982Z,100985.06
2023-05-14T21:43:04.548Z,100982.75
2023-05-14T21:45:33.259Z,100981.44
2023-05-14T21:48:01.557Z,100986.97
2023-05-14T21:50:29.939Z,100984.56
2023-05-14T21:52:58.199Z,100981.53
2023-05-14T21:55:29.632Z,100971.75
2023-05-14T21:57:58.184Z,100972.84
2023-05-14T22:00:26.657Z,100972.91
2023-05-14T22:02:55.500Z,100962.88
2023-05-14T22:05:25.537Z,100964.88
2023-05-14T22:07:53.912Z,100966.72
2023-05-14T22:10:21.925Z,100958.31
2023-05-14T22:12:50.380Z,100948.53
2023-05-14T22:15:18.835Z,100946.16
2023-05-14T22:17:47.715Z,100945.31
2023-05-14T22:20:15.679Z,100943.31
2023-05-14T22:22:45.880Z,100941.00
2023-05-14T22:25:14.290Z,100945.13
2023-05-14T22:27:42.824Z,100951.06
2023-05-14T22:30:11.591Z,100943.72
2023-05-14T22:32:42.256Z,100946.31
2023-05-14T22:35:10.758Z,100940.06
2023-05-14T22:37:39.297Z,100941.31
2023-05-14T22:40:08.251Z,100942.06
2023-05-14T22:42:36.683Z,100949.34
2023-05-14T22:45:05.053Z,100946.31
2023-05-14T22:47:33.483Z,100940.69
2023-05-14T22:50:01.856Z,100938.66
2023-05-14T22:52:30.245Z,100946.78
2023-05-14T22:54:58.748Z,100947.69
2023-05-14T22:57:27.813Z,100946.69
2023-05-14T22:59:55.963Z,100951.75
2023-05-14T23:02:24.090Z,100948.34
2023-05-14T23:04:52.422Z,100941.66
2023-05-14T23:07:20.875Z,100945.97
2023-05-14T23:09:49.267Z,100953.84
2023-05-14T23:12:18.828Z,100948.09
2023-05-14T23:14:46.934Z,100958.06
2023-05-14T23:17:14.900Z,100955.06
2023-05-14T23:19:43.340Z,100960.47
2023-05-14T23:22:11.344Z,100948.97
2023-05-14T23:24:39.515Z,100945.63
2023-05-14T23:27:07.918Z,100946.72
2023-05-14T23:29:36.459Z,100954.94
2023-05-14T23:32:04.731Z,100942.06
2023-05-14T23:34:33.586Z,100943.31
2023-05-14T23:37:01.860Z,100937.66
2023-05-14T23:39:30.352Z,100940.75
2023-05-14T23:41:58.493Z,100943.94
2023-05-14T23:44:26.898Z,100940.75
2023-05-14T23:46:57.451Z,100941.22
2023-05-14T23:49:25.772Z,100931.41
2023-05-14T23:51:54.032Z,100938.53
2023-05-14T23:54:22.818Z,100939.50
2023-05-14T23:56:51.045Z,100944.69
2023-05-14T23:59:19.166Z,100939.75
